Time;durP1;ratioP1;P1;durP2;ratioP2;P2;SDS_P1;SDS_P2;PMS_P1;PMS_P2;Temp;Humidity;BMP_temperature;BMP_pressure;BME280_temperature;BME280_humidity;BME280_pressure;Samples;Min_cycle;Max_cycle;Signal;HPM_P1;HPM_P2
2023/02/05 00:02:01;;;;;;;13.38;8.40;;;;;;;;;;5115516;28;20048;-72
2023/02/05 00:04:46;;;;;;;17.25;9.10;;;;;;;;;;5101130;28;20366;-73
2023/02/05 00:07:32;;;;;;;17.13;9.43;;;;;;;;;;5101010;28;20436;-73
2023/02/05 00:10:18;;;;;;;16.17;9.65;;;;;;;;;;5116191;28;20019;-72
2023/02/05 00:13:03;;;;;;;17.88;9.63;;;;;;;;;;5100846;28;20020;-72
2023/02/05 00:15:49;;;;;;;16.67;9.07;;;;;;;;;;5101643;28;20027;-74
2023/02/05 00:18:36;;;;;;;20.15;10.57;;;;;;;;;;5115744;28;20359;-73
2023/02/05 00:21:22;;;;;;;16.30;9.73;;;;;;;;;;5114213;28;20023;-73
2023/02/05 00:24:07;;;;;;;14.45;9.00;;;;;;;;;;5099034;28;20028;-73
2023/02/05 00:26:53;;;;;;;17.73;9.80;;;;;;;;;;5114899;28;20346;-73
2023/02/05 00:29:38;;;;;;;17.00;9.02;;;;;;;;;;5115522;28;20020;-73
2023/02/05 00:32:24;;;;;;;17.67;9.70;;;;;;;;;;5115341;28;20028;-72
2023/02/05 00:35:10;;;;;;;14.35;9.00;;;;;;;;;;5115527;28;20059;-73
2023/02/05 00:37:55;;;;;;;13.93;8.60;;;;;;;;;;5125307;28;20041;-71
2023/02/05 00:40:42;;;;;;;13.73;8.60;;;;;;;;;;5123005;28;20074;-73
2023/02/05 00:43:27;;;;;;;12.40;7.85;;;;;;;;;;5122460;28;20034;-72
2023/02/05 00:46:13;;;;;;;12.27;8.05;;;;;;;;;;5117135;28;20084;-73
2023/02/05 00:48:59;;;;;;;13.52;7.68;;;;;;;;;;5114614;28;20328;-72
2023/02/05 00:51:44;;;;;;;13.48;7.50;;;;;;;;;;5115171;28;20103;-73
2023/02/05 00:54:30;;;;;;;12.75;8.13;;;;;;;;;;5115034;28;20035;-73
2023/02/05 00:57:15;;;;;;;11.40;7.32;;;;;;;;;;5115013;28;20019;-73
2023/02/05 01:00:01;;;;;;;10.98;6.88;;;;;;;;;;5100181;28;20027;-72
2023/02/05 01:02:47;;;;;;;9.52;6.18;;;;;;;;;;5114178;28;20418;-73
2023/02/05 01:05:33;;;;;;;9.40;6.05;;;;;;;;;;5115234;28;20416;-72
2023/02/05 01:08:19;;;;;;;10.63;6.13;;;;;;;;;;5114692;28;20459;-72
2023/02/05 01:11:06;;;;;;;10.95;6.00;;;;;;;;;;5099254;28;20020;-71
2023/02/05 01:13:52;;;;;;;10.88;5.95;;;;;;;;;;5114919;28;20030;-73
2023/02/05 01:16:37;;;;;;;9.10;5.85;;;;;;;;;;5099861;28;20031;-73
2023/02/05 01:19:23;;;;;;;9.15;5.25;;;;;;;;;;5114913;28;20015;-72
2023/02/05 01:22:10;;;;;;;8.70;5.47;;;;;;;;;;5114625;28;20398;-73
2023/02/05 01:24:55;;;;;;;8.38;5.22;;;;;;;;;;5114818;28;20020;-72
2023/02/05 01:27:41;;;;;;;10.00;5.20;;;;;;;;;;5114617;28;20024;-73
2023/02/05 01:30:27;;;;;;;7.95;5.20;;;;;;;;;;5100051;28;20019;-74
2023/02/05 01:33:12;;;;;;;7.00;5.07;;;;;;;;;;5114371;28;20397;-73
2023/02/05 01:35:58;;;;;;;8.32;4.57;;;;;;;;;;5117713;28;20024;-72
2023/02/05 01:38:43;;;;;;;7.35;5.18;;;;;;;;;;5118949;28;20355;-72
2023/02/05 01:41:29;;;;;;;9.57;4.80;;;;;;;;;;5118667;28;20068;-73
2023/02/05 01:44:17;;;;;;;6.70;4.70;;;;;;;;;;5104193;28;20420;-72
2023/02/05 01:47:03;;;;;;;7.63;4.82;;;;;;;;;;5118630;28;20019;-73
2023/02/05 01:49:48;;;;;;;6.80;4.18;;;;;;;;;;5103661;28;20031;-72
2023/02/05 01:52:34;;;;;;;6.28;4.50;;;;;;;;;;5103315;28;20107;-73
2023/02/05 01:55:19;;;;;;;8.00;4.88;;;;;;;;;;5118308;28;20033;-71
2023/02/05 01:58:05;;;;;;;7.35;4.90;;;;;;;;;;5118327;28;20026;-72
2023/02/05 02:00:51;;;;;;;7.20;4.78;;;;;;;;;;5118404;28;20023;-73
2023/02/05 02:03:37;;;;;;;9.02;4.90;;;;;;;;;;5104137;28;20111;-73
2023/02/05 02:06:22;;;;;;;6.20;4.05;;;;;;;;;;5117956;28;20440;-72
2023/02/05 02:09:08;;;;;;;7.07;4.40;;;;;;;;;;5118386;28;20027;-72
2023/02/05 02:11:54;;;;;;;7.15;4.60;;;;;;;;;;5117823;28;20016;-72
2023/02/05 02:14:42;;;;;;;7.03;4.65;;;;;;;;;;5117687;28;20031;-72
2023/02/05 02:17:29;;;;;;;6.97;4.55;;;;;;;;;;5118011;28;20020;-72
2023/02/05 02:20:17;;;;;;;8.15;5.03;;;;;;;;;;5118348;28;20026;-74
2023/02/05 02:23:11;;;;;;;8.02;4.70;;;;;;;;;;5108574;28;20102;-71
2023/02/05 02:26:08;;;;;;;7.65;4.57;;;;;;;;;;5111336;28;20027;-72
2023/02/05 02:28:58;;;;;;;6.43;4.68;;;;;;;;;;5108098;28;20016;-72
2023/02/05 02:31:56;;;;;;;8.23;4.80;;;;;;;;;;5117735;28;20031;-72
2023/02/05 02:34:47;;;;;;;7.90;4.60;;;;;;;;;;5118192;28;20011;-73
2023/02/05 02:37:36;;;;;;;6.18;4.20;;;;;;;;;;5102709;28;20404;-74
2023/02/05 02:40:25;;;;;;;8.57;4.07;;;;;;;;;;5117913;28;20029;-72
2023/02/05 02:43:14;;;;;;;7.88;4.60;;;;;;;;;;5117347;28;20024;-72
2023/02/05 02:46:02;;;;;;;7.60;4.72;;;;;;;;;;5116624;28;20023;-73
2023/02/05 02:48:49;;;;;;;6.32;4.20;;;;;;;;;;5117240;28;20038;-73
2023/02/05 02:51:36;;;;;;;7.05;4.40;;;;;;;;;;5117400;28;20084;-73
2023/02/05 02:54:24;;;;;;;6.13;4.43;;;;;;;;;;5117468;28;20114;-74
2023/02/05 02:57:10;;;;;;;6.80;4.35;;;;;;;;;;5116891;28;20102;-72
2023/02/05 02:59:58;;;;;;;7.40;4.70;;;;;;;;;;5101684;28;20103;-73
2023/02/05 03:02:44;;;;;;;6.97;4.45;;;;;;;;;;5116590;28;20043;-73
2023/02/05 03:05:31;;;;;;;6.15;3.80;;;;;;;;;;5102777;28;20019;-72
2023/02/05 03:08:40;;;;;;;7.05;4.20;;;;;;;;;;5101429;28;20401;-73
2023/02/05 03:11:25;;;;;;;7.82;4.60;;;;;;;;;;5102690;28;20023;-73
2023/02/05 03:14:11;;;;;;;7.07;4.35;;;;;;;;;;5116907;28;20073;-73
2023/02/05 03:16:57;;;;;;;5.55;3.90;;;;;;;;;;5117065;28;20031;-72
2023/02/05 03:19:43;;;;;;;6.55;3.75;;;;;;;;;;5101457;28;20012;-72
2023/02/05 03:22:29;;;;;;;7.05;4.00;;;;;;;;;;5101490;28;20055;-73
2023/02/05 03:25:15;;;;;;;5.88;3.90;;;;;;;;;;5116549;28;20377;-73
2023/02/05 03:28:01;;;;;;;5.88;4.00;;;;;;;;;;5116669;28;20012;-72
2023/02/05 03:31:05;;;;;;;6.35;4.05;;;;;;;;;;5116561;28;20102;-72
2023/02/05 03:34:03;;;;;;;4.85;3.78;;;;;;;;;;5115701;28;20081;-72
2023/02/05 03:37:08;;;;;;;5.50;3.47;;;;;;;;;;5116479;28;20011;-72
2023/02/05 03:40:03;;;;;;;4.88;3.42;;;;;;;;;;5116932;28;20356;-73
2023/02/05 03:42:55;;;;;;;5.90;3.30;;;;;;;;;;5116983;28;20379;-73
2023/02/05 03:45:41;;;;;;;4.95;3.40;;;;;;;;;;5116075;28;20080;-72
2023/02/05 03:48:39;;;;;;;6.15;3.33;;;;;;;;;;5115963;28;20007;-73
2023/02/05 03:51:43;;;;;;;5.07;3.47;;;;;;;;;;5115339;28;20020;-72
2023/02/05 03:54:47;;;;;;;5.60;3.10;;;;;;;;;;5115972;28;20023;-73
2023/02/05 03:57:51;;;;;;;3.42;3.00;;;;;;;;;;5116126;28;20015;-73
2023/02/05 04:00:37;;;;;;;6.30;3.45;;;;;;;;;;5115805;28;20034;-73
2023/02/05 04:03:22;;;;;;;5.13;3.20;;;;;;;;;;5115701;28;20047;-72
2023/02/05 04:06:08;;;;;;;4.32;2.97;;;;;;;;;;5116039;28;20416;-73
2023/02/05 04:08:54;;;;;;;5.88;3.35;;;;;;;;;;5115534;28;20028;-72
2023/02/05 04:11:39;;;;;;;4.75;3.08;;;;;;;;;;5115522;28;20027;-72
2023/02/05 04:14:25;;;;;;;5.13;3.10;;;;;;;;;;5116375;28;20111;-73
2023/02/05 04:17:10;;;;;;;4.25;3.10;;;;;;;;;;5116235;28;20020;-73
2023/02/05 04:19:56;;;;;;;4.68;2.58;;;;;;;;;;5115812;28;20015;-72
2023/02/05 04:22:42;;;;;;;3.95;3.00;;;;;;;;;;5115235;28;20092;-73
2023/02/05 04:25:27;;;;;;;4.65;2.90;;;;;;;;;;5115688;28;20019;-71
2023/02/05 04:28:13;;;;;;;4.53;2.90;;;;;;;;;;5115326;28;20035;-73
2023/02/05 04:30:58;;;;;;;4.32;3.00;;;;;;;;;;5115663;28;20031;-74
2023/02/05 04:33:44;;;;;;;4.95;2.97;;;;;;;;;;5115545;28;20333;-72
2023/02/05 04:36:29;;;;;;;4.03;2.70;;;;;;;;;;5101335;28;20031;-73
2023/02/05 04:39:15;;;;;;;6.07;3.45;;;;;;;;;;5114988;28;20019;-73
2023/02/05 04:42:01;;;;;;;4.55;2.90;;;;;;;;;;5115184;28;20027;-72
2023/02/05 04:44:46;;;;;;;4.22;2.90;;;;;;;;;;5099975;28;20084;-73
2023/02/05 04:47:32;;;;;;;3.72;2.42;;;;;;;;;;5115209;28;20020;-73
2023/02/05 04:50:17;;;;;;;5.60;2.60;;;;;;;;;;5114790;28;20043;-73
2023/02/05 04:53:03;;;;;;;3.92;2.63;;;;;;;;;;5114659;28;20023;-72
2023/02/05 04:55:48;;;;;;;5.03;2.58;;;;;;;;;;5115418;28;20038;-73
2023/02/05 04:58:34;;;;;;;4.15;2.70;;;;;;;;;;5115135;28;20035;-72
2023/02/05 05:01:21;;;;;;;5.10;2.85;;;;;;;;;;5114670;28;20052;-72
2023/02/05 05:04:07;;;;;;;4.38;2.55;;;;;;;;;;5100307;28;20031;-73
2023/02/05 05:06:53;;;;;;;3.63;2.80;;;;;;;;;;5098919;28;20012;-72
2023/02/05 05:09:38;;;;;;;3.90;2.80;;;;;;;;;;5099231;28;20102;-72
2023/02/05 05:12:24;;;;;;;3.97;2.60;;;;;;;;;;5100007;28;20137;-72
2023/02/05 05:15:10;;;;;;;5.78;3.40;;;;;;;;;;5114277;28;20024;-72
2023/02/05 05:17:55;;;;;;;4.32;3.00;;;;;;;;;;5114887;28;20451;-72
2023/02/05 05:20:41;;;;;;;4.10;2.88;;;;;;;;;;5114327;28;20024;-73
2023/02/05 05:23:26;;;;;;;5.40;3.28;;;;;;;;;;5114816;28;20047;-72
2023/02/05 05:26:12;;;;;;;5.28;2.92;;;;;;;;;;5113753;28;20015;-72
2023/02/05 05:28:58;;;;;;;6.07;2.78;;;;;;;;;;5099630;28;20008;-72
2023/02/05 05:31:43;;;;;;;5.90;3.40;;;;;;;;;;5114666;28;20028;-72
2023/02/05 05:34:29;;;;;;;6.78;3.60;;;;;;;;;;5114714;28;20305;-72
2023/02/05 05:37:14;;;;;;;8.18;3.60;;;;;;;;;;5099675;28;20031;-70
2023/02/05 05:46:08;;;;;;;6.93;3.03;;;;;;;;;;5114617;28;20020;-72
2023/02/05 05:48:55;;;;;;;8.07;3.50;;;;;;;;;;5114633;28;20027;-72
2023/02/05 05:51:41;;;;;;;6.00;3.60;;;;;;;;;;5100114;28;20460;-71
2023/02/05 05:54:26;;;;;;;5.22;3.03;;;;;;;;;;5099408;28;20031;-72
2023/02/05 05:57:12;;;;;;;7.45;3.17;;;;;;;;;;5113869;28;20026;-72
2023/02/05 05:59:58;;;;;;;6.05;3.03;;;;;;;;;;5098972;28;20027;-73
2023/02/05 06:02:43;;;;;;;6.68;3.50;;;;;;;;;;5113929;28;20074;-72
2023/02/05 06:05:29;;;;;;;6.00;3.10;;;;;;;;;;5114022;28;20031;-74
2023/02/05 06:08:15;;;;;;;5.63;3.33;;;;;;;;;;5113751;28;20019;-72
2023/02/05 06:11:01;;;;;;;4.97;3.35;;;;;;;;;;5114077;28;20015;-73
2023/02/05 06:13:46;;;;;;;4.72;3.00;;;;;;;;;;5113470;28;20027;-73
2023/02/05 06:16:32;;;;;;;6.22;2.88;;;;;;;;;;5113889;28;20165;-72
2023/02/05 06:19:17;;;;;;;3.78;2.83;;;;;;;;;;5114256;28;20428;-73
2023/02/05 06:22:03;;;;;;;5.68;3.10;;;;;;;;;;5115496;28;20019;-73
2023/02/05 06:24:49;;;;;;;4.68;2.95;;;;;;;;;;5117251;28;20039;-72
2023/02/05 06:27:34;;;;;;;6.05;3.28;;;;;;;;;;5117747;28;20019;-71
2023/02/05 06:30:20;;;;;;;4.63;2.80;;;;;;;;;;5117789;28;20024;-72
2023/02/05 06:33:06;;;;;;;8.27;5.00;;;;;;;;;;5117848;28;20030;-72
2023/02/05 06:35:51;;;;;;;5.68;3.75;;;;;;;;;;5117954;28;20019;-72
2023/02/05 06:38:37;;;;;;;6.18;3.83;;;;;;;;;;5117751;28;20015;-72
2023/02/05 06:41:22;;;;;;;7.65;4.00;;;;;;;;;;5117401;28;20030;-71
2023/02/05 06:44:08;;;;;;;5.93;3.60;;;;;;;;;;5127993;28;20016;-72
2023/02/05 06:46:53;;;;;;;6.35;3.28;;;;;;;;;;5120711;28;20016;-71
2023/02/05 06:49:39;;;;;;;7.70;3.75;;;;;;;;;;5117575;28;20020;-72
2023/02/05 06:52:25;;;;;;;10.57;4.38;;;;;;;;;;5101833;28;20024;-73
2023/02/05 06:55:10;;;;;;;5.63;3.53;;;;;;;;;;5117811;28;20023;-72
2023/02/05 06:57:56;;;;;;;9.30;3.80;;;;;;;;;;5117467;28;20419;-72
2023/02/05 07:00:41;;;;;;;7.38;4.35;;;;;;;;;;5102069;28;20364;-73
2023/02/05 07:03:27;;;;;;;10.68;4.15;;;;;;;;;;5117124;28;20020;-73
2023/02/05 07:06:13;;;;;;;7.78;4.75;;;;;;;;;;5101899;28;20020;-73
2023/02/05 07:08:58;;;;;;;11.50;4.63;;;;;;;;;;5117091;28;20090;-72
2023/02/05 07:11:44;;;;;;;6.53;3.80;;;;;;;;;;5101793;28;20406;-72
2023/02/05 07:14:30;;;;;;;5.80;3.60;;;;;;;;;;5116663;28;20024;-73
2023/02/05 07:17:15;;;;;;;6.55;4.13;;;;;;;;;;5117575;28;20024;-73
2023/02/05 07:20:04;;;;;;;9.80;5.00;;;;;;;;;;5112498;28;20119;-70
2023/02/05 07:22:52;;;;;;;6.57;3.80;;;;;;;;;;5116522;28;20042;-72
2023/02/05 07:25:38;;;;;;;7.75;3.63;;;;;;;;;;5117371;28;20107;-73
2023/02/05 07:28:23;;;;;;;7.13;4.28;;;;;;;;;;5116975;28;20440;-72
2023/02/05 07:31:10;;;;;;;6.32;4.10;;;;;;;;;;5116519;28;20379;-72
2023/02/05 07:33:56;;;;;;;6.55;4.05;;;;;;;;;;5116177;28;20024;-73
2023/02/05 07:36:41;;;;;;;8.63;4.40;;;;;;;;;;5116197;28;20020;-73
2023/02/05 07:39:27;;;;;;;4.22;3.03;;;;;;;;;;5116620;28;20027;-74
2023/02/05 07:42:12;;;;;;;6.20;3.60;;;;;;;;;;5116044;28;20108;-73
2023/02/05 07:44:58;;;;;;;6.40;3.70;;;;;;;;;;5116558;28;20019;-72
2023/02/05 07:47:44;;;;;;;7.45;4.07;;;;;;;;;;5115995;28;20023;-73
2023/02/05 07:50:29;;;;;;;8.38;3.80;;;;;;;;;;5114909;28;20410;-73
2023/02/05 07:53:15;;;;;;;5.43;3.50;;;;;;;;;;5116309;28;20028;-74
2023/02/05 07:56:02;;;;;;;8.70;3.67;;;;;;;;;;5115945;28;20161;-73
2023/02/05 07:58:47;;;;;;;6.03;3.80;;;;;;;;;;5115615;28;20023;-72
2023/02/05 08:01:33;;;;;;;5.88;3.50;;;;;;;;;;5115482;28;20044;-72
2023/02/05 08:04:19;;;;;;;6.63;3.67;;;;;;;;;;5116300;28;20024;-73
2023/02/05 08:07:05;;;;;;;5.07;3.40;;;;;;;;;;5116332;28;20016;-72
2023/02/05 08:09:50;;;;;;;6.90;3.35;;;;;;;;;;5116024;28;20022;-73
2023/02/05 08:12:39;;;;;;;7.57;3.95;;;;;;;;;;5115944;28;20020;-73
2023/02/05 08:15:25;;;;;;;8.43;3.35;;;;;;;;;;5115789;28;20363;-74
2023/02/05 08:18:10;;;;;;;7.55;3.45;;;;;;;;;;5115866;28;20337;-73
2023/02/05 08:20:56;;;;;;;7.07;3.70;;;;;;;;;;5100260;28;20106;-73
2023/02/05 08:23:42;;;;;;;6.80;4.18;;;;;;;;;;5115862;28;20023;-73
2023/02/05 08:26:27;;;;;;;9.23;4.70;;;;;;;;;;5115877;28;20019;-73
2023/02/05 08:29:13;;;;;;;6.40;3.83;;;;;;;;;;5122109;28;20018;-71
2023/02/05 08:31:59;;;;;;;8.15;4.30;;;;;;;;;;5123132;28;20031;-74
2023/02/05 08:34:44;;;;;;;5.47;3.53;;;;;;;;;;5108505;28;20015;-73
2023/02/05 08:37:30;;;;;;;7.72;3.75;;;;;;;;;;5100573;28;20023;-73
2023/02/05 08:40:15;;;;;;;9.05;3.55;;;;;;;;;;5116469;28;20034;-72
2023/02/05 08:43:01;;;;;;;6.15;3.20;;;;;;;;;;5115474;28;20028;-73
2023/02/05 08:45:47;;;;;;;4.20;2.90;;;;;;;;;;5100777;28;20027;-72
2023/02/05 08:48:32;;;;;;;6.50;3.72;;;;;;;;;;5115577;28;20108;-74
2023/02/05 08:51:18;;;;;;;5.53;3.10;;;;;;;;;;5101418;28;20421;-73
2023/02/05 08:54:08;;;;;;;4.32;2.92;;;;;;;;;;5100694;28;20047;-73
2023/02/05 08:56:53;;;;;;;10.07;3.53;;;;;;;;;;5100657;28;20020;-73
2023/02/05 08:59:39;;;;;;;5.18;2.97;;;;;;;;;;5100829;28;20443;-74
2023/02/05 09:02:25;;;;;;;9.13;3.38;;;;;;;;;;5114731;28;20061;-73
2023/02/05 09:05:11;;;;;;;7.10;3.90;;;;;;;;;;5115043;28;20483;-73
2023/02/05 09:07:58;;;;;;;9.43;3.35;;;;;;;;;;5115370;28;20096;-72
2023/02/05 09:10:44;;;;;;;6.18;3.17;;;;;;;;;;5099125;28;20023;-73
2023/02/05 09:13:29;;;;;;;4.20;3.03;;;;;;;;;;5099289;28;20031;-73
2023/02/05 09:16:15;;;;;;;4.60;2.85;;;;;;;;;;5099368;28;20385;-74
2023/02/05 09:19:00;;;;;;;4.93;2.90;;;;;;;;;;5115302;28;20094;-72
2023/02/05 09:21:46;;;;;;;5.93;2.97;;;;;;;;;;5114677;28;20016;-73
2023/02/05 09:24:31;;;;;;;4.07;2.60;;;;;;;;;;5115239;28;20027;-74
2023/02/05 09:27:17;;;;;;;5.78;2.90;;;;;;;;;;5115179;28;20012;-73
2023/02/05 09:30:03;;;;;;;10.05;3.72;;;;;;;;;;5115042;28;20336;-73
2023/02/05 09:32:48;;;;;;;5.53;3.22;;;;;;;;;;5114216;28;20024;-72
2023/02/05 09:35:34;;;;;;;6.20;3.13;;;;;;;;;;5114648;28;20023;-73
2023/02/05 09:38:20;;;;;;;5.15;2.97;;;;;;;;;;5114314;28;20027;-73
2023/02/05 09:41:11;;;;;;;5.22;2.58;;;;;;;;;;5114208;28;20038;-72
2023/02/05 09:44:15;;;;;;;4.68;2.50;;;;;;;;;;5114614;28;20028;-72
2023/02/05 09:47:15;;;;;;;4.07;2.50;;;;;;;;;;5114373;28;20026;-71
2023/02/05 09:50:00;;;;;;;3.47;2.60;;;;;;;;;;5114306;28;20028;-73
2023/02/05 09:52:49;;;;;;;2.97;2.00;;;;;;;;;;5113894;28;20055;-72
2023/02/05 09:55:37;;;;;;;5.28;2.50;;;;;;;;;;5099781;28;20085;-72
2023/02/05 09:58:25;;;;;;;4.53;2.08;;;;;;;;;;5118440;28;20031;-73
2023/02/05 10:01:13;;;;;;;3.22;2.00;;;;;;;;;;5118080;28;20387;-72
2023/02/05 10:04:01;;;;;;;5.18;2.40;;;;;;;;;;5102929;28;20039;-72
2023/02/05 10:06:52;;;;;;;3.90;2.22;;;;;;;;;;5118064;28;20148;-73
2023/02/05 10:09:49;;;;;;;3.50;2.30;;;;;;;;;;5118684;28;20333;-73
2023/02/05 10:12:41;;;;;;;4.28;2.55;;;;;;;;;;5117971;28;20024;-73
2023/02/05 10:15:45;;;;;;;3.90;2.30;;;;;;;;;;5118011;28;20089;-72
2023/02/05 10:18:43;;;;;;;3.85;2.10;;;;;;;;;;5117902;28;20019;-71
2023/02/05 10:21:52;;;;;;;7.45;2.33;;;;;;;;;;5118651;28;20121;-73
2023/02/05 10:25:00;;;;;;;4.00;2.22;;;;;;;;;;5102542;28;20020;-73
2023/02/05 10:27:52;;;;;;;6.22;2.25;;;;;;;;;;5117805;28;20020;-72
2023/02/05 10:30:48;;;;;;;4.13;2.70;;;;;;;;;;5103125;28;20133;-72
2023/02/05 10:33:40;;;;;;;5.80;3.10;;;;;;;;;;5118474;28;20024;-73
2023/02/05 10:36:26;;;;;;;12.27;3.25;;;;;;;;;;5103138;28;20035;-73
2023/02/05 10:39:13;;;;;;;4.65;2.60;;;;;;;;;;5118314;28;20019;-72
2023/02/05 10:42:01;;;;;;;9.00;2.97;;;;;;;;;;5118111;28;20034;-72
2023/02/05 10:44:48;;;;;;;5.05;2.90;;;;;;;;;;5102710;28;20024;-74
2023/02/05 10:47:34;;;;;;;4.45;2.80;;;;;;;;;;5102269;28;20126;-71
2023/02/05 10:50:26;;;;;;;7.07;3.00;;;;;;;;;;5117321;28;20016;-73
2023/02/05 10:53:16;;;;;;;4.40;2.80;;;;;;;;;;5117220;28;20080;-73
2023/02/05 10:56:03;;;;;;;5.53;3.40;;;;;;;;;;5117878;28;20355;-72
2023/02/05 10:58:53;;;;;;;5.13;3.70;;;;;;;;;;5117437;28;20020;-73
2023/02/05 11:01:40;;;;;;;5.80;3.40;;;;;;;;;;5101559;28;20075;-74
2023/02/05 11:04:52;;;;;;;5.32;3.03;;;;;;;;;;5118097;28;20015;-73
2023/02/05 11:07:39;;;;;;;6.32;3.00;;;;;;;;;;5116488;28;20024;-72
2023/02/05 11:10:26;;;;;;;6.97;3.13;;;;;;;;;;5117270;28;20019;-73
2023/02/05 11:13:19;;;;;;;5.63;3.42;;;;;;;;;;5118612;28;20031;-73
2023/02/05 11:16:07;;;;;;;5.78;3.20;;;;;;;;;;5104889;28;20023;-72
2023/02/05 11:18:57;;;;;;;6.63;3.17;;;;;;;;;;5106127;28;20030;-72
2023/02/05 11:21:54;;;;;;;7.53;3.30;;;;;;;;;;5103351;28;20356;-74
2023/02/05 11:24:40;;;;;;;5.10;3.20;;;;;;;;;;5116923;28;20488;-72
2023/02/05 11:27:25;;;;;;;6.50;2.90;;;;;;;;;;5117055;28;20020;-73
2023/02/05 11:30:21;;;;;;;5.30;3.35;;;;;;;;;;5116939;28;20110;-72
2023/02/05 11:33:16;;;;;;;7.78;3.22;;;;;;;;;;5101200;28;20024;-72
2023/02/05 11:36:06;;;;;;;4.32;3.25;;;;;;;;;;5116837;28;20039;-73
2023/02/05 11:38:55;;;;;;;5.32;3.65;;;;;;;;;;5116737;28;20095;-73
2023/02/05 11:41:47;;;;;;;10.05;3.67;;;;;;;;;;5116223;28;20024;-72
2023/02/05 11:44:46;;;;;;;6.50;3.22;;;;;;;;;;5101451;28;20087;-72
2023/02/05 11:47:34;;;;;;;6.93;3.45;;;;;;;;;;5116125;28;20016;-72
2023/02/05 11:50:22;;;;;;;6.22;3.30;;;;;;;;;;5115156;28;20475;-72
2023/02/05 11:53:13;;;;;;;10.07;3.28;;;;;;;;;;5115867;28;20024;-73
2023/02/05 11:56:04;;;;;;;5.43;3.72;;;;;;;;;;5115838;28;20027;-72
2023/02/05 11:58:58;;;;;;;7.25;3.63;;;;;;;;;;5115953;28;20034;-72
2023/02/05 12:01:44;;;;;;;4.75;3.17;;;;;;;;;;5115353;28;20048;-73
2023/02/05 12:04:37;;;;;;;4.93;3.17;;;;;;;;;;5116138;28;20103;-71
2023/02/05 12:07:24;;;;;;;6.30;3.65;;;;;;;;;;5115662;28;20100;-72
2023/02/05 12:10:16;;;;;;;5.65;3.53;;;;;;;;;;5115931;28;20034;-72
2023/02/05 12:13:11;;;;;;;5.82;3.20;;;;;;;;;;5115259;28;20337;-72
2023/02/05 12:15:59;;;;;;;4.60;2.90;;;;;;;;;;5115781;28;20122;-72
2023/02/05 12:18:55;;;;;;;4.40;3.13;;;;;;;;;;5115332;28;20011;-72
2023/02/05 12:21:47;;;;;;;6.32;3.47;;;;;;;;;;5115757;28;20077;-73
2023/02/05 12:24:35;;;;;;;4.50;2.80;;;;;;;;;;5115297;28;20020;-72
2023/02/05 12:27:33;;;;;;;7.25;3.20;;;;;;;;;;5115493;28;20349;-72
2023/02/05 12:30:18;;;;;;;5.45;3.30;;;;;;;;;;5115028;28;20493;-72
2023/02/05 12:33:19;;;;;;;5.82;3.30;;;;;;;;;;5115241;28;20107;-73
2023/02/05 12:36:23;;;;;;;6.63;3.47;;;;;;;;;;5115362;28;20019;-73
2023/02/05 12:39:29;;;;;;;11.05;3.85;;;;;;;;;;5100224;28;20333;-74
2023/02/05 12:42:24;;;;;;;7.40;3.55;;;;;;;;;;5099833;28;20011;-73
2023/02/05 12:45:28;;;;;;;5.75;2.92;;;;;;;;;;5115115;28;20012;-73
2023/02/05 12:48:38;;;;;;;3.50;2.65;;;;;;;;;;5114666;28;20436;-73
2023/02/05 12:51:39;;;;;;;5.97;3.72;;;;;;;;;;5100837;28;20108;-74
2023/02/05 12:54:43;;;;;;;7.10;3.60;;;;;;;;;;5100598;28;20020;-73
2023/02/05 12:57:35;;;;;;;13.85;4.68;;;;;;;;;;5114556;28;20039;-73
2023/02/05 13:00:23;;;;;;;7.05;3.83;;;;;;;;;;5115133;28;20020;-73
2023/02/05 13:03:14;;;;;;;8.50;3.95;;;;;;;;;;5114964;28;20047;-72
2023/02/05 13:06:13;;;;;;;5.93;3.75;;;;;;;;;;5114653;28;20062;-73
2023/02/05 13:09:05;;;;;;;8.88;3.78;;;;;;;;;;5115239;28;20019;-70
2023/02/05 13:11:50;;;;;;;9.85;4.10;;;;;;;;;;5100614;28;20019;-72
2023/02/05 13:14:46;;;;;;;10.82;4.28;;;;;;;;;;5099635;28;20023;-73
2023/02/05 13:17:37;;;;;;;8.90;3.60;;;;;;;;;;5100442;28;20020;-74
2023/02/05 13:28:38;;;;;;;7.65;4.22;;;;;;;;;;5099004;28;20015;-73
2023/02/05 13:29:50;;;;;;;6.22;4.20;;;;;;;;;;5114933;28;20466;-73
2023/02/05 13:32:36;;;;;;;7.05;3.65;;;;;;;;;;5104373;28;20274;-72
2023/02/05 13:35:22;;;;;;;8.60;3.90;;;;;;;;;;5118738;28;20077;-73
2023/02/05 13:38:34;;;;;;;9.23;4.53;;;;;;;;;;5104220;28;20027;-73
2023/02/05 13:41:43;;;;;;;10.45;4.38;;;;;;;;;;5099971;28;20032;-73
2023/02/05 13:44:43;;;;;;;11.63;5.15;;;;;;;;;;5119094;28;20023;-72
2023/02/05 13:47:29;;;;;;;8.45;4.32;;;;;;;;;;5118589;28;20099;-72
2023/02/05 13:50:33;;;;;;;7.25;4.28;;;;;;;;;;5118986;28;20019;-72
2023/02/05 13:53:37;;;;;;;12.15;4.13;;;;;;;;;;5117833;28;20116;-74
2023/02/05 13:56:42;;;;;;;7.75;3.75;;;;;;;;;;5117898;28;20054;-73
2023/02/05 13:59:33;;;;;;;9.65;4.25;;;;;;;;;;5119267;28;20027;-74
2023/02/05 14:02:32;;;;;;;8.55;3.97;;;;;;;;;;5117885;28;20059;-72
2023/02/05 14:05:26;;;;;;;7.72;4.50;;;;;;;;;;5118106;28;20393;-73
2023/02/05 14:08:20;;;;;;;6.53;3.78;;;;;;;;;;5103497;28;20019;-74
2023/02/05 14:11:06;;;;;;;13.90;4.35;;;;;;;;;;5117966;28;20019;-72
2023/02/05 14:14:10;;;;;;;18.13;6.10;;;;;;;;;;5118202;28;20371;-73
2023/02/05 14:16:57;;;;;;;7.45;4.43;;;;;;;;;;5102483;28;20031;-73
2023/02/05 14:19:47;;;;;;;7.72;4.40;;;;;;;;;;5117517;28;20467;-73
2023/02/05 14:22:41;;;;;;;11.30;4.30;;;;;;;;;;5118108;28;20481;-73
2023/02/05 14:25:40;;;;;;;10.20;4.85;;;;;;;;;;5117907;28;20059;-72
2023/02/05 14:28:29;;;;;;;6.82;3.92;;;;;;;;;;5117559;28;20102;-72
2023/02/05 14:31:53;;;;;;;8.40;4.30;;;;;;;;;;5122617;28;20030;-70
2023/02/05 14:34:38;;;;;;;11.73;4.13;;;;;;;;;;5045840;28;20136;-72
2023/02/05 14:37:38;;;;;;;7.32;4.53;;;;;;;;;;5043599;28;20331;-71
2023/02/05 14:40:29;;;;;;;6.45;3.53;;;;;;;;;;5115706;28;20024;-74
2023/02/05 14:43:20;;;;;;;8.68;4.18;;;;;;;;;;5116962;28;20051;-73
2023/02/05 14:46:19;;;;;;;7.15;4.10;;;;;;;;;;5117415;28;20015;-73
2023/02/05 14:49:06;;;;;;;8.15;4.03;;;;;;;;;;5102954;28;20012;-72
2023/02/05 14:51:58;;;;;;;11.85;4.22;;;;;;;;;;5089150;28;20016;-73
2023/02/05 14:54:56;;;;;;;8.93;4.95;;;;;;;;;;5116617;28;20020;-72
2023/02/05 14:57:47;;;;;;;8.90;4.18;;;;;;;;;;5101732;28;20011;-73
2023/02/05 15:00:37;;;;;;;8.77;4.63;;;;;;;;;;5117482;28;20047;-72
2023/02/05 15:03:25;;;;;;;9.18;4.78;;;;;;;;;;5117015;28;20122;-72
2023/02/05 15:06:14;;;;;;;8.75;4.88;;;;;;;;;;5101253;28;20106;-74
2023/02/05 15:09:13;;;;;;;10.50;5.47;;;;;;;;;;5117270;28;20183;-72
2023/02/05 15:12:17;;;;;;;8.13;4.35;;;;;;;;;;5116893;28;20478;-74
2023/02/05 15:15:27;;;;;;;13.95;5.47;;;;;;;;;;5116846;28;20134;-72
2023/02/05 15:18:20;;;;;;;16.10;6.35;;;;;;;;;;5117294;28;20099;-74
2023/02/05 15:21:13;;;;;;;11.23;5.57;;;;;;;;;;5102841;28;20036;-73
2023/02/05 15:24:04;;;;;;;11.57;5.90;;;;;;;;;;5116857;28;20111;-73
2023/02/05 15:27:01;;;;;;;28.95;12.23;;;;;;;;;;5116694;28;20012;-71
2023/02/05 15:29:48;;;;;;;29.67;17.02;;;;;;;;;;5115686;28;20415;-72
2023/02/05 15:32:41;;;;;;;38.10;22.85;;;;;;;;;;5115566;28;20102;-73
2023/02/05 15:35:33;;;;;;;16.92;5.90;;;;;;;;;;5115570;28;20019;-72
2023/02/05 15:38:19;;;;;;;9.00;4.97;;;;;;;;;;5118014;28;20020;-73
2023/02/05 15:41:06;;;;;;;13.52;6.18;;;;;;;;;;5132657;28;20095;-73
2023/02/05 15:44:02;;;;;;;9.20;5.35;;;;;;;;;;5120757;28;20030;-73
2023/02/05 15:46:48;;;;;;;12.98;6.72;;;;;;;;;;5117335;28;20027;-72
2023/02/05 15:49:35;;;;;;;13.77;6.03;;;;;;;;;;5115836;28;20102;-73
2023/02/05 15:52:23;;;;;;;13.73;6.20;;;;;;;;;;5116457;28;20062;-72
2023/02/05 15:55:11;;;;;;;13.38;6.60;;;;;;;;;;5101599;28;20023;-73
2023/02/05 15:58:03;;;;;;;12.32;6.70;;;;;;;;;;5116155;28;20055;-73
2023/02/05 16:00:51;;;;;;;11.27;5.85;;;;;;;;;;5117792;28;20093;-73
2023/02/05 16:03:37;;;;;;;12.38;6.97;;;;;;;;;;5116188;28;20050;-73
2023/02/05 16:06:24;;;;;;;10.80;6.07;;;;;;;;;;5115356;28;20110;-73
2023/02/05 16:09:17;;;;;;;8.90;5.03;;;;;;;;;;5120035;28;20022;-70
2023/02/05 16:12:13;;;;;;;13.20;5.57;;;;;;;;;;5126149;28;20020;-70
2023/02/05 16:15:06;;;;;;;11.52;6.05;;;;;;;;;;5108604;28;20103;-73
2023/02/05 16:17:52;;;;;;;11.02;6.20;;;;;;;;;;5117570;28;20450;-74
2023/02/05 16:20:42;;;;;;;9.05;4.72;;;;;;;;;;5101377;28;20479;-72
2023/02/05 16:23:31;;;;;;;8.32;4.57;;;;;;;;;;5115725;28;20349;-73
2023/02/05 16:26:19;;;;;;;9.57;5.15;;;;;;;;;;5100982;28;20020;-73
2023/02/05 16:29:06;;;;;;;12.77;5.07;;;;;;;;;;5115624;28;20099;-73
2023/02/05 16:31:57;;;;;;;13.80;5.97;;;;;;;;;;5099965;28;20028;-72
2023/02/05 16:34:47;;;;;;;11.07;5.20;;;;;;;;;;5100569;28;20020;-73
2023/02/05 16:37:32;;;;;;;8.75;4.57;;;;;;;;;;5099786;28;20124;-73
2023/02/05 16:40:37;;;;;;;10.02;4.82;;;;;;;;;;5101676;28;20023;-72
2023/02/05 16:43:25;;;;;;;13.88;5.57;;;;;;;;;;5114983;28;20039;-72
2023/02/05 16:46:12;;;;;;;13.23;6.05;;;;;;;;;;5100225;28;20325;-72
2023/02/05 16:48:59;;;;;;;10.80;6.10;;;;;;;;;;5100742;28;20016;-73
2023/02/05 16:51:45;;;;;;;11.05;6.10;;;;;;;;;;5115020;28;20034;-73
2023/02/05 16:54:32;;;;;;;10.80;6.50;;;;;;;;;;5100060;28;20020;-73
2023/02/05 16:57:46;;;;;;;12.25;6.28;;;;;;;;;;5115212;28;20028;-73
2023/02/05 17:00:32;;;;;;;11.43;5.65;;;;;;;;;;5101089;28;20098;-72
2023/02/05 17:03:18;;;;;;;9.18;5.90;;;;;;;;;;5100803;28;20040;-74
2023/02/05 17:06:14;;;;;;;8.35;5.28;;;;;;;;;;5114941;28;20028;-73